Air Navigation Services of Czech Republic  
Last data update:  25.05.2018 02:56:07 UTC Česká verze
   METEO Page displayed:  25.05.2018 02:56:51 UTC  
help
METAR EDDB 250250Z 06009KT CAVOK 15/09 Q1021 NOSIG=
METAR EDDC 250250Z VRB02KT CAVOK 16/10 Q1020=
METAR EDDE 250250Z 06003KT 5000 -RA BR NSC 14/14 Q1019=
METAR EDDF 250250Z 02007KT 6000 NSC 16/15 Q1017 NOSIG=
METAR EDDM 250250Z 25002KT 2500 0900N R26R/0700V1000U R26L/0700V1200N BCFG NSC 10/10 Q1019 TEMPO 1200=
METAR EDDN 250250Z VRB02KT 8000 1200E R10/0450V0900D BCFG FEW015 13/12 Q1018=
METAR EDDP 250250Z 06007KT CAVOK 13/10 Q1019 NOSIG=
METAR EDDT 250250Z 07005KT 050V110 CAVOK 16/09 Q1022 NOSIG=
METAR EDQM NIL
METAR EPBY 250230Z 04006KT CAVOK 11/06 Q1023 =
METAR EPGD 250230Z 31003KT CAVOK 07/06 Q1024 =
METAR EPKK 250230Z 02004KT 9999 FEW056 12/09 Q1019 =
METAR EPKT 250230Z 00000KT CAVOK 09/07 Q1020 =
METAR EPLL 250230Z 05004KT CAVOK 15/10 Q1021 =
METAR EPPO 250230Z 04003KT 360V080 CAVOK 12/08 Q1022 =
METAR EPRZ 250230Z VRB01KT CAVOK 08/07 Q1019 =
METAR EPWA 250230Z 04004KT CAVOK 15/10 Q1021 NOSIG=
METAR EPWR 250230Z 34003KT 300V360 CAVOK 10/09 Q1020 =
METAR LHBP 250230Z VRB03KT CAVOK 18/15 Q1016 NOSIG=
METAR LHSM NIL
METAR LKCV 250200Z 02003KT CAVOK 15/13 Q1019 NOSIG RMK BLU BLU=
METAR LKKB 250200Z 00000KT CAVOK 15/13 Q1019 RMK BLU=
METAR LKKU NIL
METAR LKKV 250200Z 10003KT 9999 -RA NSC 13/12 Q1020 RMK REG QNH 1016=
SPECI LKLN 250231Z AUTO VRB02KT 3300 BR BKN002 OVC094 14/14 Q1019=
METAR LKMT 250230Z 03004KT CAVOK 12/10 Q1019 NOSIG RMK REG QNH 1016=
METAR LKNA 250200Z 01007KT CAVOK 15/11 Q1018 RMK BLU=
METAR LKPD 250200Z 01006KT 9999 RA NSC 15/13 Q1019 RETSRA RMK BLU=
METAR LKPR 250230Z 02003KT CAVOK 15/12 Q1019 NOSIG RMK REG QNH 1016=
METAR LKTB 250230Z VRB02KT CAVOK 18/10 Q1018 NOSIG RMK REG QNH 1016=
METAR LKVO NIL
METAR LOWI 250250Z AUTO 21003KT 170V230 9999 FEW007 SCT020 13/12 Q1020=
METAR LOWL 250250Z AUTO VRB02KT 7000 FEW024 BKN080 15/14 Q1018=
METAR LOWS 250250Z AUTO 14004KT 9999 FEW048 OVC110 14/13 Q1019=
METAR LOWW 250250Z 32002KT 9999 OVC034 FEW040TCU 17/15 Q1017 TEMPO SHRA BKN030 FEW040CB=
METAR LZIB 250230Z 05006KT CAVOK 16/14 Q1017=
METAR LZKZ 250230Z 01010KT CAVOK 18/11 Q1017=
METAR LZPP 250230Z AUTO 35010KT 9999 -RA OVC100/// 16/15 Q1017 RERA=
METAR LZSL 250230Z 00000KT 5000 BCFG SCT005 15/14 Q1017=
METAR LZTT 250230Z 07004KT 9999 FEW033 BKN090 12/11 Q1019=
METAR LZZI 250230Z VRB01KT CAVOK 13/10 Q1018=